createdAt,value
2022-11-28T00:02:18.719Z,79.64
2022-11-28T00:04:46.614Z,79.82
2022-11-28T00:07:15.962Z,79.87
2022-11-28T00:09:46.123Z,80.04
2022-11-28T00:12:16.148Z,79.74
2022-11-28T00:14:44.859Z,80.05
2022-11-28T00:17:12.666Z,80.10
2022-11-28T00:19:40.335Z,79.57
2022-11-28T00:22:07.960Z,79.98
2022-11-28T00:24:36.902Z,79.77
2022-11-28T00:27:04.743Z,79.57
2022-11-28T00:29:32.402Z,80.42
2022-11-28T00:32:00.218Z,80.10
2022-11-28T00:34:29.559Z,80.14
2022-11-28T00:36:57.169Z,80.57
2022-11-28T00:39:24.936Z,80.87
2022-11-28T00:41:53.937Z,80.51
2022-11-28T00:44:21.542Z,81.08
2022-11-28T00:46:49.179Z,80.86
2022-11-28T00:49:16.938Z,80.60
2022-11-28T00:51:44.516Z,80.74
2022-11-28T00:54:12.229Z,81.20
2022-11-28T00:56:41.527Z,81.24
2022-11-28T00:59:10.545Z,81.50
2022-11-28T01:01:43.567Z,81.75
2022-11-28T01:04:13.600Z,81.69
2022-11-28T01:06:43.797Z,81.60
2022-11-28T01:09:14.406Z,81.59
2022-11-28T01:11:43.740Z,81.53
2022-11-28T01:14:14.279Z,81.87
2022-11-28T01:16:42.196Z,81.32
2022-11-28T01:19:09.983Z,81.37
2022-11-28T01:21:37.950Z,81.35
2022-11-28T01:24:06.231Z,81.30
2022-11-28T01:26:38.344Z,81.56
2022-11-28T01:29:06.054Z,81.43
2022-11-28T01:31:46.198Z,81.27
2022-11-28T01:34:15.398Z,80.63
2022-11-28T01:36:43.003Z,80.81
2022-11-28T01:39:11.161Z,80.75
2022-11-28T01:41:40.634Z,80.27
2022-11-28T01:44:47.574Z,80.65
2022-11-28T01:47:21.950Z,81.00
2022-11-28T01:49:52.124Z,81.81
2022-11-28T01:52:21.194Z,82.64
2022-11-28T01:54:54.570Z,82.69
2022-11-28T01:57:26.836Z,82.87
2022-11-28T02:00:00.982Z,83.09
2022-11-28T02:02:36.112Z,83.03
2022-11-28T02:05:04.635Z,83.36
2022-11-28T02:07:33.905Z,83.42
2022-11-28T02:10:03.703Z,83.31
2022-11-28T02:13:17.825Z,83.27
2022-11-28T02:16:01.942Z,83.42
2022-11-28T02:18:50.376Z,83.33
2022-11-28T02:21:48.683Z,83.61
2022-11-28T02:24:45.839Z,83.30
2022-11-28T02:27:30.980Z,83.50
2022-11-28T02:30:16.446Z,83.63
2022-11-28T02:33:10.209Z,83.33
2022-11-28T02:35:50.169Z,83.12
2022-11-28T02:38:24.444Z,83.12
2022-11-28T02:41:03.666Z,82.85
2022-11-28T02:43:40.149Z,82.27
2022-11-28T02:46:15.494Z,81.74
2022-11-28T02:48:50.762Z,82.05
2022-11-28T02:51:27.782Z,82.10
2022-11-28T02:53:57.797Z,82.29
2022-11-28T02:56:26.699Z,82.89
2022-11-28T02:58:54.559Z,82.35
2022-11-28T03:01:26.755Z,82.34
2022-11-28T03:04:20.320Z,82.03
2022-11-28T03:07:02.806Z,82.12
2022-11-28T03:09:53.334Z,82.35
2022-11-28T03:12:26.559Z,82.48
2022-11-28T03:14:57.455Z,82.20
2022-11-28T03:17:38.774Z,82.75
2022-11-28T03:20:17.001Z,83.21
2022-11-28T03:22:54.951Z,82.84
2022-11-28T03:25:29.570Z,83.09
2022-11-28T03:28:04.778Z,82.92
2022-11-28T03:30:39.251Z,82.87
2022-11-28T03:33:07.869Z,82.77
2022-11-28T03:35:45.608Z,83.08
2022-11-28T03:38:21.105Z,83.32
2022-11-28T03:40:52.187Z,83.33
2022-11-28T03:43:26.023Z,83.35
2022-11-28T03:45:58.736Z,83.44
2022-11-28T03:48:31.254Z,83.17
2022-11-28T03:51:05.554Z,83.53
2022-11-28T03:53:42.599Z,83.40
2022-11-28T03:56:15.737Z,83.07
2022-11-28T03:58:50.606Z,83.45
2022-11-28T04:01:31.640Z,83.42
2022-11-28T04:04:10.899Z,83.82
2022-11-28T04:06:51.029Z,83.56
2022-11-28T04:09:22.820Z,83.38
2022-11-28T04:11:55.259Z,83.52
2022-11-28T04:14:26.899Z,83.67
2022-11-28T04:16:59.609Z,83.79
2022-11-28T04:19:31.708Z,84.36
2022-11-28T04:22:11.436Z,84.10
2022-11-28T04:24:45.742Z,83.96
2022-11-28T04:27:18.996Z,84.23
2022-11-28T04:29:51.029Z,83.90
2022-11-28T04:32:21.694Z,84.18
2022-11-28T04:34:55.823Z,84.31
2022-11-28T04:37:28.097Z,84.51
2022-11-28T04:39:57.697Z,84.63
2022-11-28T04:42:32.079Z,84.37
2022-11-28T04:45:07.440Z,84.75
2022-11-28T04:47:35.638Z,84.63
2022-11-28T04:50:03.582Z,84.64
2022-11-28T04:52:41.150Z,84.97
2022-11-28T04:55:15.772Z,85.00
2022-11-28T04:57:58.078Z,84.65
2022-11-28T05:00:27.195Z,84.49
2022-11-28T05:02:55.979Z,84.89
2022-11-28T05:05:29.835Z,83.62
2022-11-28T05:08:27.604Z,83.64
2022-11-28T05:10:56.122Z,84.19
2022-11-28T05:13:24.183Z,84.37
2022-11-28T05:15:52.183Z,84.53
2022-11-28T05:18:19.946Z,83.97
2022-11-28T05:20:47.640Z,84.41
2022-11-28T05:23:16.583Z,84.45
2022-11-28T05:25:46.239Z,84.13
2022-11-28T05:28:15.946Z,84.14
2022-11-28T05:30:43.512Z,84.38
2022-11-28T05:33:11.126Z,84.06
2022-11-28T05:35:40.413Z,83.66
2022-11-28T05:38:13.640Z,84.34
2022-11-28T05:40:44.342Z,84.94
2022-11-28T05:43:12.361Z,84.28
2022-11-28T05:45:40.818Z,83.61
2022-11-28T05:48:09.839Z,84.12
2022-11-28T05:50:40.187Z,84.35
2022-11-28T05:53:08.145Z,83.98
2022-11-28T05:55:36.204Z,83.64
2022-11-28T05:58:05.471Z,84.13
2022-11-28T06:00:33.137Z,84.35
2022-11-28T06:03:01.624Z,83.84
2022-11-28T06:05:42.057Z,83.85
2022-11-28T06:08:12.742Z,83.97
2022-11-28T06:10:40.923Z,83.75
2022-11-28T06:13:10.021Z,84.08
2022-11-28T06:15:38.627Z,83.64
2022-11-28T06:18:10.986Z,83.69
2022-11-28T06:20:38.830Z,83.76
2022-11-28T06:23:06.618Z,84.08
2022-11-28T06:25:34.472Z,84.31
2022-11-28T06:28:03.263Z,84.31
2022-11-28T06:30:32.240Z,84.69
2022-11-28T06:32:59.816Z,84.18
2022-11-28T06:35:27.478Z,84.50
2022-11-28T06:37:55.052Z,84.67
2022-11-28T06:40:22.695Z,84.65
2022-11-28T06:42:51.126Z,84.41
2022-11-28T06:45:18.962Z,84.23
2022-11-28T06:47:48.744Z,84.13
2022-11-28T06:50:19.261Z,84.10
2022-11-28T06:52:46.839Z,83.96
2022-11-28T06:55:14.474Z,84.00
2022-11-28T06:57:42.404Z,84.07
2022-11-28T07:00:11.151Z,84.51
2022-11-28T07:02:38.852Z,84.18
2022-11-28T07:05:28.956Z,84.11
2022-11-28T07:08:18.136Z,83.90
2022-11-28T07:10:46.058Z,83.88
2022-11-28T07:13:15.797Z,84.20
2022-11-28T07:15:49.970Z,83.33
2022-11-28T07:18:18.019Z,83.67
2022-11-28T07:20:48.050Z,83.67
2022-11-28T07:23:15.703Z,83.59
2022-11-28T07:25:45.496Z,84.10
2022-11-28T07:28:16.813Z,83.94
2022-11-28T07:30:47.127Z,83.84
2022-11-28T07:33:14.803Z,83.41
2022-11-28T07:35:42.402Z,83.21
2022-11-28T07:38:11.370Z,83.38
2022-11-28T07:40:39.301Z,83.22
2022-11-28T07:43:07.081Z,83.16
2022-11-28T07:45:53.851Z,83.51
2022-11-28T07:48:23.207Z,82.77
2022-11-28T07:50:50.879Z,82.46
2022-11-28T07:53:19.875Z,83.02
2022-11-28T07:55:47.795Z,82.38
2022-11-28T07:58:15.604Z,82.74
2022-11-28T08:00:43.412Z,82.30
2022-11-28T08:03:11.273Z,81.97
2022-11-28T08:05:38.838Z,81.46
2022-11-28T08:08:07.158Z,81.97
2022-11-28T08:10:36.245Z,81.80
2022-11-28T08:13:04.575Z,81.72
2022-11-28T08:15:32.337Z,81.29
2022-11-28T08:17:59.985Z,81.17
2022-11-28T08:20:27.637Z,80.95
2022-11-28T08:22:55.536Z,81.19
2022-11-28T08:25:23.734Z,81.23
2022-11-28T08:27:54.153Z,81.36
2022-11-28T08:30:22.904Z,81.65
2022-11-28T08:32:50.657Z,81.76
2022-11-28T08:35:18.735Z,81.38
2022-11-28T08:37:47.167Z,80.62
2022-11-28T08:40:15.880Z,80.84
2022-11-28T08:42:44.057Z,81.25
2022-11-28T08:45:13.302Z,81.09
2022-11-28T08:47:45.032Z,80.79
2022-11-28T08:50:15.609Z,80.83
2022-11-28T08:52:51.119Z,79.96
2022-11-28T08:55:22.210Z,79.97
2022-11-28T08:57:56.710Z,81.06
2022-11-28T09:00:26.434Z,81.49
2022-11-28T09:02:54.615Z,80.66
2022-11-28T09:05:22.804Z,80.35
2022-11-28T09:07:56.217Z,79.82
2022-11-28T09:10:25.730Z,80.17
2022-11-28T09:12:53.948Z,80.37
2022-11-28T09:15:22.332Z,80.12
2022-11-28T09:17:51.541Z,80.08
2022-11-28T09:20:19.220Z,80.01
2022-11-28T09:22:47.879Z,79.83
2022-11-28T09:25:16.799Z,78.54
2022-11-28T09:27:47.074Z,78.45
2022-11-28T09:30:15.788Z,78.53
2022-11-28T09:32:49.425Z,77.46
2022-11-28T09:35:18.937Z,77.20
2022-11-28T09:37:48.953Z,78.03
2022-11-28T09:40:20.569Z,77.17
2022-11-28T09:42:48.440Z,77.83
2022-11-28T09:45:20.463Z,76.63
2022-11-28T09:47:52.578Z,77.19
2022-11-28T09:50:25.386Z,77.48
2022-11-28T09:52:59.497Z,77.03
2022-11-28T09:55:36.469Z,77.10
2022-11-28T09:58:12.831Z,76.28
2022-11-28T10:00:56.016Z,75.68
2022-11-28T10:03:41.871Z,75.67
2022-11-28T10:06:23.040Z,75.34
2022-11-28T10:09:10.018Z,74.98
2022-11-28T10:11:52.116Z,74.61
2022-11-28T10:14:44.730Z,75.41
2022-11-28T10:17:26.169Z,74.52
2022-11-28T10:19:58.340Z,73.59
2022-11-28T10:22:38.210Z,73.23
2022-11-28T10:25:15.244Z,72.80
2022-11-28T10:27:44.819Z,73.86
2022-11-28T10:30:21.733Z,72.46
2022-11-28T10:32:58.446Z,71.79
2022-11-28T10:35:31.637Z,72.42
2022-11-28T10:38:02.139Z,73.21
2022-11-28T10:40:39.587Z,72.22
2022-11-28T10:43:17.195Z,72.14
2022-11-28T10:45:52.927Z,72.31
2022-11-28T10:48:40.061Z,71.71
2022-11-28T10:51:25.462Z,71.76
2022-11-28T10:54:06.034Z,71.01
2022-11-28T10:56:42.524Z,70.58
2022-11-28T10:59:25.335Z,70.12
2022-11-28T11:01:54.196Z,70.38
2022-11-28T11:04:26.642Z,69.70
2022-11-28T11:07:11.484Z,70.45
2022-11-28T11:09:45.670Z,69.75
2022-11-28T11:12:23.024Z,69.41
2022-11-28T11:14:52.208Z,69.83
2022-11-28T11:17:32.652Z,68.93
2022-11-28T11:20:03.930Z,69.42
2022-11-28T11:22:33.092Z,68.63
2022-11-28T11:25:15.665Z,68.46
2022-11-28T11:27:52.106Z,69.79
2022-11-28T11:30:29.204Z,70.03
2022-11-28T11:32:58.312Z,69.06
2022-11-28T11:35:32.830Z,69.16
2022-11-28T11:38:17.811Z,68.95
2022-11-28T11:40:47.175Z,69.14
2022-11-28T11:43:27.010Z,69.13
2022-11-28T11:46:06.741Z,69.13
2022-11-28T11:48:39.963Z,68.84
2022-11-28T11:51:08.697Z,69.09
2022-11-28T11:53:36.465Z,69.82
2022-11-28T11:56:06.122Z,68.99
2022-11-28T11:58:42.491Z,69.31
2022-11-28T12:01:15.278Z,69.39
2022-11-28T12:03:50.483Z,68.55
2022-11-28T12:06:24.261Z,69.28
2022-11-28T12:08:54.192Z,69.80
2022-11-28T12:11:36.009Z,70.22
2022-11-28T12:14:16.814Z,69.93
2022-11-28T12:16:58.617Z,70.63
2022-11-28T12:19:33.086Z,70.59
2022-11-28T12:22:12.064Z,70.21
2022-11-28T12:24:48.483Z,70.82
2022-11-28T12:27:31.746Z,70.50
2022-11-28T12:30:17.811Z,71.15
2022-11-28T12:32:57.570Z,71.81
2022-11-28T12:35:38.015Z,71.64
2022-11-28T12:38:19.936Z,71.04
2022-11-28T12:41:04.969Z,71.49
2022-11-28T12:43:46.861Z,72.83
2022-11-28T12:46:31.735Z,73.84
2022-11-28T12:49:25.008Z,75.08
2022-11-28T12:52:13.285Z,75.67
2022-11-28T12:54:52.878Z,77.35
2022-11-28T12:57:33.745Z,78.14
2022-11-28T13:00:13.489Z,79.46
2022-11-28T13:02:57.030Z,80.91
2022-11-28T13:05:46.136Z,80.44
2022-11-28T13:08:34.213Z,81.46
2022-11-28T13:11:16.766Z,81.53
2022-11-28T13:13:50.212Z,80.71
2022-11-28T13:16:28.367Z,81.16
2022-11-28T13:19:05.737Z,81.39
2022-11-28T13:21:40.776Z,81.53
2022-11-28T13:24:28.143Z,82.11
2022-11-28T13:27:03.562Z,82.03
2022-11-28T13:29:38.892Z,81.59
2022-11-28T13:32:15.563Z,82.07
2022-11-28T13:34:44.087Z,82.29
2022-11-28T13:40:15.255Z,83.19
2022-11-28T13:43:04.065Z,84.11
2022-11-28T13:45:39.180Z,84.92
2022-11-28T13:49:12.664Z,86.19
2022-11-28T13:51:32.563Z,85.83
2022-11-28T13:54:50.030Z,85.79
2022-11-28T13:57:27.081Z,86.07
2022-11-28T13:59:59.375Z,86.35
2022-11-28T14:02:36.424Z,87.28
2022-11-28T14:05:07.136Z,87.65
2022-11-28T14:07:37.064Z,86.97
2022-11-28T14:10:32.863Z,87.19
2022-11-28T14:13:23.556Z,86.94
2022-11-28T14:16:07.834Z,86.42
2022-11-28T14:19:04.965Z,86.19
2022-11-28T14:21:50.643Z,86.75
2022-11-28T14:24:30.991Z,87.37
2022-11-28T14:27:01.978Z,87.45
2022-11-28T14:29:35.866Z,86.71
2022-11-28T14:34:58.145Z,87.22
2022-11-28T14:37:58.496Z,86.55
2022-11-28T14:41:06.693Z,86.53
2022-11-28T14:43:40.073Z,87.08
2022-11-28T14:46:28.410Z,86.80
2022-11-28T14:49:48.571Z,86.48
2022-11-28T14:52:40.963Z,86.64
2022-11-28T14:55:21.728Z,86.15
2022-11-28T14:57:58.979Z,85.36
2022-11-28T15:00:32.604Z,85.03
2022-11-28T15:03:20.797Z,85.68
2022-11-28T15:05:51.683Z,85.78
2022-11-28T15:08:50.837Z,85.55
2022-11-28T15:12:02.095Z,86.11
2022-11-28T15:14:33.034Z,86.10
2022-11-28T15:17:09.008Z,85.91
2022-11-28T15:19:46.569Z,86.93
2022-11-28T15:22:36.819Z,86.43
2022-11-28T15:25:05.671Z,85.82
2022-11-28T15:27:37.568Z,86.18
2022-11-28T15:30:17.847Z,85.91
2022-11-28T15:32:50.234Z,85.56
2022-11-28T15:35:21.795Z,85.03
2022-11-28T15:37:53.748Z,85.06
2022-11-28T15:40:31.313Z,85.37
2022-11-28T15:43:11.305Z,85.85
2022-11-28T15:45:42.730Z,84.85
2022-11-28T15:51:27.604Z,85.30
2022-11-28T15:53:55.721Z,84.45
2022-11-28T15:56:24.550Z,84.92
2022-11-28T15:58:53.675Z,85.05
2022-11-28T16:01:23.161Z,85.08
2022-11-28T16:03:59.504Z,85.09
2022-11-28T16:06:31.886Z,86.68
2022-11-28T16:09:04.099Z,88.54
2022-11-28T16:11:33.755Z,85.72
2022-11-28T16:14:09.707Z,85.96
2022-11-28T16:16:39.618Z,83.68
2022-11-28T16:19:10.046Z,82.98
2022-11-28T16:21:50.760Z,82.02
2022-11-28T16:24:35.305Z,80.86
2022-11-28T16:27:07.659Z,82.87
2022-11-28T16:29:37.867Z,81.92
2022-11-28T16:32:21.639Z,81.90
2022-11-28T16:34:52.705Z,83.24
2022-11-28T16:37:24.858Z,82.03
2022-11-28T16:40:09.523Z,82.14
2022-11-28T16:42:40.569Z,81.44
2022-11-28T16:45:11.176Z,81.85
2022-11-28T16:47:39.784Z,80.98
2022-11-28T16:50:40.762Z,81.17
2022-11-28T16:53:44.583Z,82.04
2022-11-28T16:56:25.898Z,83.09
2022-11-28T16:58:55.981Z,84.16
2022-11-28T17:01:25.286Z,84.61
2022-11-28T17:03:55.362Z,84.30
2022-11-28T17:06:27.386Z,83.91
2022-11-28T17:08:57.072Z,83.93
2022-11-28T17:11:30.566Z,83.54
2022-11-28T17:14:02.283Z,83.11
2022-11-28T17:16:33.115Z,83.53
2022-11-28T17:19:00.987Z,83.49
2022-11-28T17:21:40.707Z,84.41
2022-11-28T17:24:25.151Z,83.54
2022-11-28T17:27:05.734Z,84.34
2022-11-28T17:29:34.823Z,85.08
2022-11-28T17:32:09.175Z,84.88
2022-11-28T17:34:38.649Z,85.62
2022-11-28T17:37:07.178Z,85.42
2022-11-28T17:39:37.664Z,85.35
2022-11-28T17:42:10.492Z,85.96
2022-11-28T17:44:39.145Z,85.73
2022-11-28T17:47:07.692Z,85.99
2022-11-28T17:49:40.595Z,84.74
2022-11-28T17:52:18.374Z,84.91
2022-11-28T17:54:48.537Z,85.89
2022-11-28T17:57:16.476Z,86.92
2022-11-28T17:59:45.474Z,87.00
2022-11-28T18:02:14.508Z,87.12
2022-11-28T18:04:43.457Z,87.96
2022-11-28T18:07:12.101Z,87.93
2022-11-28T18:12:19.687Z,87.82
2022-11-28T18:14:48.766Z,87.99
2022-11-28T18:17:19.352Z,87.34
2022-11-28T18:22:23.231Z,87.05
2022-11-28T18:24:56.410Z,86.45
2022-11-28T18:27:26.929Z,86.06
2022-11-28T18:29:57.199Z,87.04
2022-11-28T18:32:29.014Z,87.14
2022-11-28T18:35:04.917Z,86.72
2022-11-28T18:37:37.455Z,86.52
2022-11-28T18:40:09.281Z,86.31
2022-11-28T18:42:40.223Z,87.73
2022-11-28T18:45:09.727Z,88.37
2022-11-28T18:47:38.908Z,88.12
2022-11-28T18:50:09.374Z,86.11
2022-11-28T18:52:40.583Z,86.10
2022-11-28T18:55:10.089Z,86.80
2022-11-28T18:57:43.399Z,87.73
2022-11-28T19:00:17.433Z,88.19
2022-11-28T19:05:51.524Z,87.91
2022-11-28T19:08:19.366Z,88.77
2022-11-28T19:10:49.101Z,88.87
2022-11-28T19:13:24.544Z,88.67
2022-11-28T19:15:52.590Z,89.29
2022-11-28T19:18:27.441Z,89.26
2022-11-28T19:23:32.714Z,89.90
2022-11-28T19:26:04.346Z,89.70
2022-11-28T19:28:38.502Z,89.92
2022-11-28T19:31:15.698Z,90.41
2022-11-28T19:33:49.394Z,89.61
2022-11-28T19:36:21.949Z,89.80
2022-11-28T19:38:53.265Z,89.60
2022-11-28T19:43:58.436Z,89.47
2022-11-28T19:46:39.223Z,89.87
2022-11-28T19:49:34.663Z,89.90
2022-11-28T19:54:43.433Z,90.23
2022-11-28T19:59:52.732Z,90.86
2022-11-28T20:02:23.666Z,89.71
2022-11-28T20:04:53.964Z,89.80
2022-11-28T20:07:24.889Z,89.74
2022-11-28T20:09:53.069Z,90.47
2022-11-28T20:12:21.244Z,90.40
2022-11-28T20:14:51.680Z,90.26
2022-11-28T20:19:56.726Z,89.72
2022-11-28T20:22:25.296Z,89.88
2022-11-28T20:38:07.226Z,90.24
2022-11-28T20:40:39.171Z,90.74
2022-11-28T20:43:07.615Z,90.41
2022-11-28T20:45:35.833Z,91.06
2022-11-28T20:48:04.519Z,90.16
2022-11-28T20:50:34.877Z,90.06
2022-11-28T20:53:11.924Z,89.59
2022-11-28T20:55:40.230Z,90.31
2022-11-28T20:58:08.854Z,90.59
2022-11-28T21:00:36.652Z,90.66
2022-11-28T21:03:04.630Z,90.85
2022-11-28T21:05:35.994Z,90.47
2022-11-28T21:08:05.423Z,91.06
2022-11-28T21:10:35.422Z,90.74
2022-11-28T21:13:02.999Z,91.14
2022-11-28T21:15:31.464Z,91.15
2022-11-28T21:17:58.993Z,91.44
2022-11-28T21:20:27.084Z,92.25
2022-11-28T21:22:56.205Z,91.93
2022-11-28T21:25:24.552Z,92.35
2022-11-28T21:27:54.433Z,92.38
2022-11-28T21:30:29.347Z,92.27
2022-11-28T21:32:59.544Z,92.46
2022-11-28T21:35:30.379Z,92.32
2022-11-28T21:37:59.521Z,91.79
2022-11-28T21:40:30.536Z,91.93
2022-11-28T21:43:14.055Z,92.22
2022-11-28T21:45:45.539Z,92.56
2022-11-28T21:48:13.771Z,93.15
2022-11-28T21:50:51.608Z,93.32
2022-11-28T21:53:20.806Z,93.99
2022-11-28T21:58:26.463Z,93.88
2022-11-28T22:03:32.837Z,94.54
2022-11-28T22:06:05.931Z,94.60
2022-11-28T22:08:38.178Z,94.21
2022-11-28T22:11:11.229Z,94.33
2022-11-28T22:16:30.182Z,94.57
2022-11-28T22:19:01.416Z,95.20
2022-11-28T22:21:51.417Z,94.93
2022-11-28T22:24:18.764Z,95.11
2022-11-28T22:26:50.032Z,95.15
2022-11-28T22:29:18.886Z,95.28
2022-11-28T22:31:48.679Z,95.38
2022-11-28T22:34:16.795Z,95.34
2022-11-28T22:36:47.185Z,95.50
2022-11-28T22:39:15.752Z,95.04
2022-11-28T22:41:44.211Z,95.01
2022-11-28T22:44:13.660Z,95.19
2022-11-28T22:46:41.805Z,94.73
2022-11-28T22:49:11.931Z,94.96
2022-11-28T22:51:40.368Z,94.62
2022-11-28T22:54:14.668Z,94.10
2022-11-28T22:56:48.039Z,94.18
2022-11-28T22:59:21.106Z,94.28
2022-11-28T23:01:54.079Z,93.09
2022-11-28T23:04:29.170Z,92.88
2022-11-28T23:06:58.045Z,93.52
2022-11-28T23:09:31.116Z,93.73
2022-11-28T23:12:09.111Z,94.33
2022-11-28T23:14:38.249Z,94.63
2022-11-28T23:17:08.473Z,94.05
2022-11-28T23:19:44.373Z,94.50
2022-11-28T23:22:16.337Z,93.88
2022-11-28T23:24:48.639Z,93.77
2022-11-28T23:27:18.754Z,94.09
2022-11-28T23:29:46.579Z,94.01
2022-11-28T23:32:14.261Z,95.20
2022-11-28T23:34:43.657Z,95.37
2022-11-28T23:37:11.525Z,95.24
2022-11-28T23:39:39.096Z,96.33
2022-11-28T23:42:06.867Z,96.55
2022-11-28T23:44:34.427Z,96.33
2022-11-28T23:47:02.243Z,96.80
2022-11-28T23:49:30.044Z,96.25
2022-11-28T23:51:59.267Z,96.38
2022-11-28T23:54:27.339Z,96.39
2022-11-28T23:56:55.165Z,95.88
2022-11-28T23:59:25.274Z,95.50
